• Join FlightAware (Why Join?)
  • Login
  • US Flag 
06:14PM EDT


 

Airport Tracker/Info


-or-


 

Live Flight TrackerFlight Track Log ✈ KAP927 ✈ 17-May-2013 ✈ KALB - KOGS

Flight Track Log - Related Links

Times and Time Zones

All times are in EDT time to prevent confusion due to time zone crossing. See the KAP927 flight status page for this flight to view local times or setup timezone preferences in your user account.

Time Position Orientation Groundspeed Altitude Reporting Facility
EDT Latitude Longitude Course Direction KTS MPH feet Rate Location/Type
06:34PM 42.7903 -73.8122 341° North 116 133 1,400  Level Boston Center
06:35PM 42.8275 -73.8300 341° North 123 142 2,200 660 Climbing Boston Center
06:36PM 42.8542 -73.8561 324° Northwest 120 138 2,900 600 Climbing Boston Center
06:37PM 42.8811 -73.8767 331° Northwest 121 139 3,400 540 Climbing Boston Center
06:38PM 42.9100 -73.9028 326° Northwest 125 144 4,000 540 Climbing Boston Center
06:39PM 42.9428 -73.9319 327° Northwest 127 146 4,600 480 Climbing Boston Center
06:40PM 42.9739 -73.9611 326° Northwest 135 155 5,100 360 Climbing Boston Center
06:41PM 43.0089 -73.9903 329° Northwest 151 174 5,400 360 Climbing Boston Center
06:43PM 43.0458 -74.0225 327° Northwest 142 163 5,900 420 Climbing Boston Center
06:44PM 43.0789 -74.0489 330° Northwest 136 157 6,400 420 Climbing Boston Center
06:45PM 43.1158 -74.0842 325° Northwest 139 160 6,800 420 Climbing Boston Center
06:46PM 43.1489 -74.1078 332° Northwest 140 161 7,300 420 Climbing Boston Center
06:46PM 43.1675 -74.1225 330° Northwest 142 163 7,500 360 Climbing Boston Center
06:47PM 43.1983 -74.1489 328° Northwest 142 163 7,900 360 Climbing Boston Center
06:48PM 43.2353 -74.1786 330° Northwest 142 163 8,300 300 Climbing Boston Center
06:49PM 43.2661 -74.2078 325° Northwest 142 163 8,500 60 Climbing Boston Center
06:50PM 43.3094 -74.2433 329° Northwest 155 178 8,500  Level Boston Center
06:51PM 43.3444 -74.2731 328° Northwest 160 184 8,500  Level Boston Center
06:52PM 43.3875 -74.3114 327° Northwest 165 190 8,500  Level Boston Center
06:53PM 43.4203 -74.3411 327° Northwest 165 190 8,500  Level Boston Center
06:54PM 43.4553 -74.3708 328° Northwest 159 183 8,500  Level Boston Center
06:55PM 43.4903 -74.4033 326° Northwest 159 183 8,500  Level Boston Center
06:56PM 43.5250 -74.4331 328° Northwest 154 177 8,500  Level Boston Center
06:57PM 43.5619 -74.4631 330° Northwest 154 177 8,500  Level Boston Center
06:58PM 43.5969 -74.4928 328° Northwest 154 177 8,500 -60 Level Boston Center
06:59PM 43.6319 -74.5228 328° Northwest 154 177 8,400  Descending Boston Center
07:00PM 43.6667 -74.5556 326° Northwest 149 171 8,500 -120 Climbing Boston Center
07:01PM 43.7036 -74.5856 330° Northwest 149 171 8,200 -300 Descending Boston Center
07:02PM 43.7406 -74.6183 327° Northwest 149 171 8,000 -300 Descending Boston Center
07:03PM 43.7817 -74.6486 332° Northwest 154 177 7,700 -300 Descending Boston Center
07:04PM 43.8206 -74.6817 328° Northwest 160 184 7,500 -240 Descending Boston Center
07:05PM 43.8594 -74.7178 326° Northwest 165 190 7,300 -300 Descending Boston Center
07:06PM 43.8983 -74.7508 329° Northwest 165 190 6,900 -360 Descending Boston Center
07:07PM 43.9372 -74.7869 326° Northwest 165 190 6,600 -240 Descending Boston Center
07:08PM 43.9742 -74.8203 327° Northwest 165 190 6,500 -60 Descending Boston Center
07:09PM 44.0089 -74.8533 326° Northwest 165 190 6,500  Level Boston Center
07:10PM 44.0436 -74.8836 328° Northwest 160 184 6,500 -60 Level Boston Center
07:11PM 44.0783 -74.9139 328° Northwest 155 178 6,400 -60 Descending Boston Center
07:12PM 44.1111 -74.9472 324° Northwest 150 173 6,400  Level Boston Center
07:13PM 44.1458 -74.9747 330° Northwest 150 173 6,400 -180 Level Boston Center
07:14PM 44.1806 -75.0081 325° Northwest 150 173 6,100 -300 Descending Boston Center
07:15PM 44.2172 -75.0414 327° Northwest 150 173 5,900 -300 Descending Boston Center
07:16PM 44.2561 -75.0750 328° Northwest 156 180 5,600 -360 Descending Boston Center
07:17PM 44.2950 -75.1117 326° Northwest 162 186 5,200 -480 Descending Boston Center
07:18PM 44.3358 -75.1425 332° Northwest 162 186 4,700 -540 Descending Boston Center
07:19PM 44.3747 -75.1789 326° Northwest 167 192 4,200 -540 Descending Boston Center
07:20PM 44.4156 -75.2100 331° Northwest 167 192 3,700 -420 Descending Boston Center
07:21PM 44.4544 -75.2408 330° Northwest 167 192 3,400 -300 Descending Boston Center
07:22PM 44.4931 -75.2747 328° Northwest 162 186 3,200 -300 Descending Boston Center
07:23PM 44.5319 -75.3058 330° Northwest 162 186 2,800 -420 Descending Boston Center